sensor_id;sensor_type;location;lat;lon;timestamp;P1;durP1;ratioP1;P2;durP2;ratioP2
67164;SDS011;54093;50.014;19.984;2022-07-29T00:06:18;6.13;;;3.95;;
67164;SDS011;54093;50.014;19.984;2022-07-29T00:15:38;4.57;;;4.15;;
67164;SDS011;54093;50.014;19.984;2022-07-29T00:24:59;5.15;;;4.20;;
67164;SDS011;54093;50.014;19.984;2022-07-29T00:34:20;6.18;;;4.38;;
67164;SDS011;54093;50.014;19.984;2022-07-29T00:43:59;4.35;;;3.95;;
67164;SDS011;54093;50.014;19.984;2022-07-29T00:53:20;5.95;;;4.00;;
67164;SDS011;54093;50.014;19.984;2022-07-29T01:02:41;5.80;;;3.75;;
67164;SDS011;54093;50.014;19.984;2022-07-29T01:12:02;5.65;;;3.20;;
67164;SDS011;54093;50.014;19.984;2022-07-29T01:31:04;7.20;;;3.05;;
67164;SDS011;54093;50.014;19.984;2022-07-29T01:40:36;8.45;;;2.72;;
67164;SDS011;54093;50.014;19.984;2022-07-29T01:50:06;10.32;;;3.10;;
67164;SDS011;54093;50.014;19.984;2022-07-29T01:59:30;8.55;;;2.90;;
67164;SDS011;54093;50.014;19.984;2022-07-29T02:08:53;5.80;;;2.67;;
67164;SDS011;54093;50.014;19.984;2022-07-29T02:18:18;3.25;;;2.50;;
67164;SDS011;54093;50.014;19.984;2022-07-29T02:27:41;3.58;;;2.33;;
67164;SDS011;54093;50.014;19.984;2022-07-29T02:37:02;2.55;;;2.35;;
67164;SDS011;54093;50.014;19.984;2022-07-29T02:46:28;3.30;;;3.00;;
67164;SDS011;54093;50.014;19.984;2022-07-29T02:55:56;3.97;;;2.70;;
67164;SDS011;54093;50.014;19.984;2022-07-29T03:05:20;2.97;;;2.78;;
67164;SDS011;54093;50.014;19.984;2022-07-29T03:14:43;8.68;;;2.95;;
67164;SDS011;54093;50.014;19.984;2022-07-29T03:26:42;2.97;;;2.55;;
67164;SDS011;54093;50.014;19.984;2022-07-29T03:36:03;3.90;;;2.72;;
67164;SDS011;54093;50.014;19.984;2022-07-29T03:45:24;3.75;;;2.42;;
67164;SDS011;54093;50.014;19.984;2022-07-29T03:54:47;4.32;;;2.85;;
67164;SDS011;54093;50.014;19.984;2022-07-29T04:04:08;2.70;;;2.60;;
67164;SDS011;54093;50.014;19.984;2022-07-29T04:13:29;3.03;;;2.75;;
67164;SDS011;54093;50.014;19.984;2022-07-29T04:22:50;3.08;;;2.88;;
67164;SDS011;54093;50.014;19.984;2022-07-29T04:32:11;3.90;;;2.42;;
67164;SDS011;54093;50.014;19.984;2022-07-29T04:41:32;2.95;;;2.75;;
67164;SDS011;54093;50.014;19.984;2022-07-29T04:50:53;3.42;;;2.40;;
67164;SDS011;54093;50.014;19.984;2022-07-29T05:00:14;2.80;;;2.60;;
67164;SDS011;54093;50.014;19.984;2022-07-29T05:09:34;7.10;;;2.90;;
67164;SDS011;54093;50.014;19.984;2022-07-29T05:18:55;4.05;;;2.72;;
67164;SDS011;54093;50.014;19.984;2022-07-29T05:28:16;3.17;;;2.38;;
67164;SDS011;54093;50.014;19.984;2022-07-29T05:37:37;7.13;;;2.75;;
67164;SDS011;54093;50.014;19.984;2022-07-29T05:46:58;3.88;;;2.40;;
67164;SDS011;54093;50.014;19.984;2022-07-29T05:56:18;3.22;;;2.92;;
67164;SDS011;54093;50.014;19.984;2022-07-29T06:05:39;7.20;;;3.08;;
67164;SDS011;54093;50.014;19.984;2022-07-29T06:15:00;3.03;;;2.72;;
67164;SDS011;54093;50.014;19.984;2022-07-29T06:24:21;3.60;;;2.90;;
67164;SDS011;54093;50.014;19.984;2022-07-29T06:33:41;10.27;;;2.22;;
67164;SDS011;54093;50.014;19.984;2022-07-29T06:43:02;2.60;;;2.40;;
67164;SDS011;54093;50.014;19.984;2022-07-29T06:52:23;2.40;;;2.00;;
67164;SDS011;54093;50.014;19.984;2022-07-29T07:01:45;7.80;;;2.53;;
67164;SDS011;54093;50.014;19.984;2022-07-29T07:11:06;2.40;;;2.20;;
67164;SDS011;54093;50.014;19.984;2022-07-29T07:20:27;2.85;;;2.20;;
67164;SDS011;54093;50.014;19.984;2022-07-29T07:29:48;4.68;;;2.85;;
67164;SDS011;54093;50.014;19.984;2022-07-29T07:39:09;3.22;;;2.47;;
67164;SDS011;54093;50.014;19.984;2022-07-29T07:48:29;4.35;;;2.50;;
67164;SDS011;54093;50.014;19.984;2022-07-29T07:57:50;2.58;;;2.38;;
67164;SDS011;54093;50.014;19.984;2022-07-29T08:07:11;2.85;;;2.65;;
67164;SDS011;54093;50.014;19.984;2022-07-29T08:16:32;1.95;;;1.80;;
67164;SDS011;54093;50.014;19.984;2022-07-29T08:25:52;2.00;;;1.80;;
67164;SDS011;54093;50.014;19.984;2022-07-29T08:35:13;3.08;;;2.35;;
67164;SDS011;54093;50.014;19.984;2022-07-29T08:44:34;2.20;;;1.90;;
67164;SDS011;54093;50.014;19.984;2022-07-29T08:53:56;5.75;;;2.25;;
67164;SDS011;54093;50.014;19.984;2022-07-29T09:03:22;2.35;;;2.25;;
67164;SDS011;54093;50.014;19.984;2022-07-29T09:12:44;2.20;;;2.00;;
67164;SDS011;54093;50.014;19.984;2022-07-29T09:22:06;1.73;;;1.63;;
67164;SDS011;54093;50.014;19.984;2022-07-29T09:31:34;3.80;;;2.08;;
67164;SDS011;54093;50.014;19.984;2022-07-29T09:40:58;2.33;;;2.13;;
67164;SDS011;54093;50.014;19.984;2022-07-29T09:50:20;2.50;;;2.35;;
67164;SDS011;54093;50.014;19.984;2022-07-29T09:59:53;3.50;;;2.22;;
67164;SDS011;54093;50.014;19.984;2022-07-29T10:09:17;3.00;;;2.20;;
67164;SDS011;54093;50.014;19.984;2022-07-29T10:18:38;2.30;;;2.20;;
67164;SDS011;54093;50.014;19.984;2022-07-29T10:28:00;14.15;;;2.45;;
67164;SDS011;54093;50.014;19.984;2022-07-29T10:47:00;3.78;;;2.22;;
67164;SDS011;54093;50.014;19.984;2022-07-29T10:56:31;2.88;;;1.90;;
67164;SDS011;54093;50.014;19.984;2022-07-29T11:05:56;2.22;;;2.13;;
67164;SDS011;54093;50.014;19.984;2022-07-29T11:15:18;2.47;;;2.28;;
67164;SDS011;54093;50.014;19.984;2022-07-29T11:24:44;4.55;;;2.30;;
67164;SDS011;54093;50.014;19.984;2022-07-29T11:43:51;5.40;;;2.20;;
67164;SDS011;54093;50.014;19.984;2022-07-29T11:53:19;4.22;;;2.22;;
67164;SDS011;54093;50.014;19.984;2022-07-29T12:02:41;8.25;;;1.95;;
67164;SDS011;54093;50.014;19.984;2022-07-29T12:12:03;2.13;;;2.03;;
67164;SDS011;54093;50.014;19.984;2022-07-29T12:21:24;9.80;;;2.13;;
67164;SDS011;54093;50.014;19.984;2022-07-29T12:30:46;5.43;;;2.17;;
67164;SDS011;54093;50.014;19.984;2022-07-29T12:40:12;6.63;;;2.90;;
67164;SDS011;54093;50.014;19.984;2022-07-29T12:49:35;3.13;;;2.63;;
67164;SDS011;54093;50.014;19.984;2022-07-29T12:58:55;2.10;;;1.90;;
67164;SDS011;54093;50.014;19.984;2022-07-29T13:08:17;7.93;;;1.88;;
67164;SDS011;54093;50.014;19.984;2022-07-29T13:17:41;4.95;;;2.60;;
67164;SDS011;54093;50.014;19.984;2022-07-29T13:27:03;2.45;;;2.28;;
67164;SDS011;54093;50.014;19.984;2022-07-29T13:36:24;3.63;;;2.30;;
67164;SDS011;54093;50.014;19.984;2022-07-29T13:45:45;5.55;;;2.20;;
67164;SDS011;54093;50.014;19.984;2022-07-29T13:55:06;2.72;;;2.15;;
67164;SDS011;54093;50.014;19.984;2022-07-29T14:04:27;7.45;;;2.45;;
67164;SDS011;54093;50.014;19.984;2022-07-29T14:13:48;3.15;;;2.53;;
67164;SDS011;54093;50.014;19.984;2022-07-29T14:23:09;4.32;;;2.50;;
67164;SDS011;54093;50.014;19.984;2022-07-29T14:32:30;6.10;;;2.55;;
67164;SDS011;54093;50.014;19.984;2022-07-29T14:41:50;2.27;;;2.07;;
67164;SDS011;54093;50.014;19.984;2022-07-29T14:51:11;2.05;;;1.95;;
67164;SDS011;54093;50.014;19.984;2022-07-29T15:00:32;2.75;;;2.20;;
67164;SDS011;54093;50.014;19.984;2022-07-29T15:09:53;13.57;;;2.22;;
67164;SDS011;54093;50.014;19.984;2022-07-29T15:19:14;2.20;;;2.10;;
67164;SDS011;54093;50.014;19.984;2022-07-29T15:28:35;2.22;;;2.13;;
67164;SDS011;54093;50.014;19.984;2022-07-29T15:37:56;2.42;;;2.22;;
67164;SDS011;54093;50.014;19.984;2022-07-29T15:47:16;3.17;;;2.28;;
67164;SDS011;54093;50.014;19.984;2022-07-29T15:56:37;2.13;;;2.03;;
67164;SDS011;54093;50.014;19.984;2022-07-29T16:05:58;2.17;;;1.80;;
67164;SDS011;54093;50.014;19.984;2022-07-29T16:15:19;3.88;;;2.17;;
67164;SDS011;54093;50.014;19.984;2022-07-29T16:24:39;3.63;;;2.53;;
67164;SDS011;54093;50.014;19.984;2022-07-29T16:34:00;2.20;;;2.10;;
67164;SDS011;54093;50.014;19.984;2022-07-29T16:43:22;1.90;;;1.80;;
67164;SDS011;54093;50.014;19.984;2022-07-29T16:52:43;2.30;;;2.13;;
67164;SDS011;54093;50.014;19.984;2022-07-29T17:02:04;2.40;;;2.30;;
67164;SDS011;54093;50.014;19.984;2022-07-29T17:11:25;3.47;;;3.03;;
67164;SDS011;54093;50.014;19.984;2022-07-29T17:20:45;3.80;;;3.60;;
67164;SDS011;54093;50.014;19.984;2022-07-29T17:30:06;6.88;;;3.50;;
67164;SDS011;54093;50.014;19.984;2022-07-29T17:39:28;6.85;;;3.33;;
67164;SDS011;54093;50.014;19.984;2022-07-29T17:48:48;3.53;;;3.22;;
67164;SDS011;54093;50.014;19.984;2022-07-29T17:58:09;3.63;;;3.35;;
67164;SDS011;54093;50.014;19.984;2022-07-29T18:07:30;3.95;;;2.72;;
67164;SDS011;54093;50.014;19.984;2022-07-29T18:16:51;3.53;;;3.22;;
67164;SDS011;54093;50.014;19.984;2022-07-29T18:26:12;4.00;;;3.20;;
67164;SDS011;54093;50.014;19.984;2022-07-29T18:35:33;3.30;;;2.80;;
67164;SDS011;54093;50.014;19.984;2022-07-29T18:44:53;4.65;;;2.88;;
67164;SDS011;54093;50.014;19.984;2022-07-29T18:54:15;2.90;;;2.70;;
67164;SDS011;54093;50.014;19.984;2022-07-29T19:03:36;3.25;;;2.53;;
67164;SDS011;54093;50.014;19.984;2022-07-29T19:12:57;3.03;;;2.83;;
67164;SDS011;54093;50.014;19.984;2022-07-29T19:22:19;2.38;;;2.28;;
67164;SDS011;54093;50.014;19.984;2022-07-29T19:31:41;3.00;;;2.25;;
67164;SDS011;54093;50.014;19.984;2022-07-29T19:41:03;2.90;;;2.75;;
67164;SDS011;54093;50.014;19.984;2022-07-29T19:50:25;2.88;;;2.67;;
67164;SDS011;54093;50.014;19.984;2022-07-29T19:59:46;2.80;;;2.70;;
67164;SDS011;54093;50.014;19.984;2022-07-29T20:09:06;2.45;;;2.35;;
67164;SDS011;54093;50.014;19.984;2022-07-29T20:18:27;2.55;;;2.35;;
67164;SDS011;54093;50.014;19.984;2022-07-29T20:27:48;2.72;;;2.53;;
67164;SDS011;54093;50.014;19.984;2022-07-29T20:37:11;2.33;;;2.22;;
67164;SDS011;54093;50.014;19.984;2022-07-29T20:46:33;3.83;;;3.03;;
67164;SDS011;54093;50.014;19.984;2022-07-29T20:55:54;3.28;;;2.90;;
67164;SDS011;54093;50.014;19.984;2022-07-29T21:05:15;6.28;;;3.42;;
67164;SDS011;54093;50.014;19.984;2022-07-29T21:14:36;3.42;;;3.25;;
67164;SDS011;54093;50.014;19.984;2022-07-29T21:24:00;4.47;;;4.20;;
67164;SDS011;54093;50.014;19.984;2022-07-29T21:33:22;6.75;;;5.45;;
67164;SDS011;54093;50.014;19.984;2022-07-29T21:42:43;10.02;;;6.72;;
67164;SDS011;54093;50.014;19.984;2022-07-29T21:52:04;5.70;;;5.30;;
67164;SDS011;54093;50.014;19.984;2022-07-29T22:01:25;5.70;;;5.40;;
67164;SDS011;54093;50.014;19.984;2022-07-29T22:10:46;6.28;;;4.85;;
67164;SDS011;54093;50.014;19.984;2022-07-29T22:20:07;4.85;;;4.65;;
67164;SDS011;54093;50.014;19.984;2022-07-29T22:29:28;4.50;;;4.18;;
67164;SDS011;54093;50.014;19.984;2022-07-29T22:38:49;4.78;;;4.22;;
67164;SDS011;54093;50.014;19.984;2022-07-29T22:48:10;4.38;;;4.18;;
67164;SDS011;54093;50.014;19.984;2022-07-29T22:57:30;3.65;;;3.33;;
67164;SDS011;54093;50.014;19.984;2022-07-29T23:06:51;4.60;;;4.22;;
67164;SDS011;54093;50.014;19.984;2022-07-29T23:16:12;3.70;;;3.50;;
67164;SDS011;54093;50.014;19.984;2022-07-29T23:25:33;3.90;;;3.70;;
67164;SDS011;54093;50.014;19.984;2022-07-29T23:34:54;5.53;;;4.10;;
67164;SDS011;54093;50.014;19.984;2022-07-29T23:44:14;4.25;;;3.85;;
67164;SDS011;54093;50.014;19.984;2022-07-29T23:53:35;6.88;;;4.18;;
